»·PEaware :: N8029B KHND-KSNA

N8029B :: KHND-KSNA

FLIGHT INFORMATION

Flight Status: Arrived
Operator: Privately registered:
United States
More flights under this callsign
Pilot: Christian A. (580)
Aircraft: Unknown
(T210)
More flights by this aircraft type
Origin: KHND Henderson
United States
Destination: KSNA John Wayne-Orange Co
United States
More flights between these airports :: More routes between these airports
Route: +PALLY5 HEC V8 EBITE
File this flight plan on PilotEdge
Remarks:
Altitude:
(Current/Filed)
12,000ft
Speed:
(Current/Filed)
160kts
Departed: 07-Jan-18 01:29 PM
Arrived: 07-Jan-18 02:53 PM
Distance/Time
Traveled:
193nm/1:24
Distance/Time
To Go:
Arrived

Flight Plot

Page will automatically refresh every two minutes.

Flight plan parsing failed; only flown route is shown


Map Options




Map Legend


Flown Route
Filed Route
Departure Airport
Arrival Airport
Navaid (VOR, NDB)
Fix

Horizontal Profiles

Position Reports

Time Latitude Longitude Heading Altitude Ground
Speed
07-Jan-18 13:26 35.970742 -115.137622 180 2449ft 0kts
07-Jan-18 13:27 35.970742 -115.137622 180 2449ft 0kts
07-Jan-18 13:28 35.970742 -115.137622 180 2449ft 0kts
07-Jan-18 13:29 35.970741 -115.137622 180 2449ft 0kts
07-Jan-18 13:30 35.970561 -115.137603 147 2449ft 6kts
07-Jan-18 13:31 35.968680 -115.136481 181 2449ft 19kts
07-Jan-18 13:32 35.963672 -115.136569 180 2449ft 14kts
07-Jan-18 13:33 35.963191 -115.136400 106 2449ft 0kts
07-Jan-18 13:34 35.963292 -115.135545 13 2449ft 8kts
07-Jan-18 13:35 35.979843 -115.134699 1 2863ft 92kts
07-Jan-18 13:36 36.000896 -115.126414 76 3988ft 87kts
07-Jan-18 13:37 36.004183 -115.094904 82 4963ft 99kts
07-Jan-18 13:38 36.006735 -115.059368 83 5958ft 111kts
07-Jan-18 13:39 36.009071 -115.019427 84 6767ft 116kts
07-Jan-18 13:40 35.989603 -114.992772 159 7487ft 124kts
07-Jan-18 13:41 35.956165 -114.977869 161 8149ft 130kts
07-Jan-18 13:42 35.921651 -114.963094 162 8844ft 132kts
07-Jan-18 13:43 35.889770 -114.975102 219 9527ft 129kts
07-Jan-18 13:44 35.861345 -115.002681 220 10221ft 130kts
07-Jan-18 13:45 35.833079 -115.030697 220 10917ft 131kts
07-Jan-18 13:46 35.804645 -115.059011 221 11619ft 131kts
07-Jan-18 13:47 35.775628 -115.087963 221 12080ft 148kts
07-Jan-18 13:48 35.750461 -115.132864 242 12077ft 170kts
07-Jan-18 13:49 35.727325 -115.184585 242 12075ft 174kts
07-Jan-18 13:50 35.703749 -115.237228 242 12075ft 177kts
07-Jan-18 13:51 35.678471 -115.289036 228 12075ft 178kts
07-Jan-18 13:52 35.645608 -115.334621 228 12075ft 178kts
07-Jan-18 13:53 35.612763 -115.379853 228 12075ft 177kts
07-Jan-18 13:54 35.580121 -115.424745 228 12179ft 172kts
07-Jan-18 13:55 35.547832 -115.469118 228 12191ft 176kts
07-Jan-18 13:56 35.515088 -115.514066 228 12191ft 177kts
07-Jan-18 13:57 35.482060 -115.558525 228 12191ft 177kts
07-Jan-18 13:58 35.448919 -115.602849 228 12191ft 177kts
07-Jan-18 13:59 35.415471 -115.647526 228 12191ft 177kts
07-Jan-18 14:00 35.386595 -115.686048 227 12191ft 177kts
07-Jan-18 14:01 35.353123 -115.730649 227 12191ft 177kts
07-Jan-18 14:02 35.319567 -115.775332 227 12163ft 177kts
07-Jan-18 14:03 35.286371 -115.819428 227 12163ft 176kts
07-Jan-18 14:04 35.253267 -115.863357 227 12163ft 175kts
07-Jan-18 14:05 35.222156 -115.904606 226 12145ft 176kts
07-Jan-18 14:06 35.188902 -115.948621 226 12145ft 176kts
07-Jan-18 14:07 35.155593 -115.992658 226 12145ft 176kts
07-Jan-18 14:08 35.122155 -116.036812 226 12145ft 177kts
07-Jan-18 14:09 35.088540 -116.081140 226 12145ft 178kts
07-Jan-18 14:10 35.055040 -116.125259 226 12145ft 178kts
07-Jan-18 14:11 35.021201 -116.169765 226 12145ft 179kts
07-Jan-18 14:12 34.987459 -116.214088 226 12145ft 179kts
07-Jan-18 14:13 34.953656 -116.258468 226 12145ft 178kts
07-Jan-18 14:14 34.919850 -116.302740 226 12126ft 177kts
07-Jan-18 14:15 34.889277 -116.342737 226 12128ft 176kts
07-Jan-18 14:16 34.856941 -116.384995 226 12128ft 176kts
07-Jan-18 14:17 34.823656 -116.428447 226 12128ft 176kts
07-Jan-18 14:18 34.789922 -116.471883 224 12127ft 176kts
07-Jan-18 14:19 34.755590 -116.514240 224 12127ft 176kts
07-Jan-18 14:20 34.720970 -116.556845 224 12127ft 177kts
07-Jan-18 14:21 34.686436 -116.599317 224 12127ft 177kts
07-Jan-18 14:22 34.652071 -116.641526 224 12127ft 177kts
07-Jan-18 14:23 34.619141 -116.681917 224 12127ft 177kts
07-Jan-18 14:24 34.584749 -116.724049 224 12127ft 177kts
07-Jan-18 14:25 34.550110 -116.766411 224 12127ft 176kts
07-Jan-18 14:26 34.516281 -116.807745 224 12120ft 176kts
07-Jan-18 14:27 34.482383 -116.849130 225 12118ft 175kts
07-Jan-18 14:28 34.448182 -116.890833 225 12118ft 174kts
07-Jan-18 14:29 34.414057 -116.932381 225 12118ft 174kts
07-Jan-18 14:30 34.380185 -116.973569 225 12118ft 174kts
07-Jan-18 14:31 34.347131 -117.013714 225 12118ft 174kts
07-Jan-18 14:32 34.312916 -117.055205 225 12118ft 174kts
07-Jan-18 14:33 34.278807 -117.096541 225 12117ft 174kts
07-Jan-18 14:34 34.237111 -117.119470 184 12081ft 177kts
07-Jan-18 14:35 34.187601 -117.123136 185 12011ft 177kts
07-Jan-18 14:36 34.139015 -117.131598 189 12011ft 176kts
07-Jan-18 14:37 34.091009 -117.139011 188 12011ft 175kts
07-Jan-18 14:38 34.042753 -117.146198 188 12011ft 175kts
07-Jan-18 14:39 33.993453 -117.153524 188 11668ft 191kts
07-Jan-18 14:40 33.943739 -117.160923 188 11016ft 202kts
07-Jan-18 14:41 33.891446 -117.168593 188 10970ft 184kts
07-Jan-18 14:42 33.842493 -117.175779 188 10971ft 178kts
07-Jan-18 14:43 33.793667 -117.182957 188 10971ft 176kts
07-Jan-18 14:44 33.757981 -117.224565 231 10257ft 195kts
07-Jan-18 14:45 33.722248 -117.275431 231 9209ft 202kts
07-Jan-18 14:46 33.685287 -117.326742 231 8190ft 205kts
07-Jan-18 14:47 33.650101 -117.375340 232 7967ft 177kts
07-Jan-18 14:48 33.642529 -117.428811 268 7970ft 160kts
07-Jan-18 14:49 33.642105 -117.482436 271 7971ft 163kts
07-Jan-18 14:50 33.642094 -117.537834 272 7511ft 169kts
07-Jan-18 14:51 33.647290 -117.592364 281 6541ft 165kts
07-Jan-18 14:52 33.655314 -117.645652 281 5582ft 162kts
07-Jan-18 14:53 33.667053 -117.695778 289 4663ft 160kts
07-Jan-18 14:54 33.683426 -117.745053 292 3701ft 159kts
07-Jan-18 14:55 33.701264 -117.788189 296 2563ft 135kts
07-Jan-18 14:56 33.716679 -117.823342 295 1665ft 112kts
07-Jan-18 14:57 33.707438 -117.846920 209 800ft 102kts
07-Jan-18 14:58 33.682667 -117.862568 208 113ft 74kts
07-Jan-18 14:59 33.673865 -117.867482 120 53ft 0kts
07-Jan-18 15:00 33.672800 -117.867643 219 53ft 11kts
07-Jan-18 15:01 33.668855 -117.871209 220 53ft 23kts
07-Jan-18 15:02 33.666574 -117.872456 244 53ft 0kts
07-Jan-18 15:03 33.666575 -117.872456 244 53ft 0kts
07-Jan-18 15:04 33.666575 -117.872456 244 53ft 0kts
07-Jan-18 15:05 33.666575 -117.872456 244 53ft 0kts
07-Jan-18 15:06 33.666575 -117.872456 244 53ft 0kts
07-Jan-18 15:07 33.666575 -117.872456 244 53ft 0kts

Navigation Log

Ident Type
Flight plan parsing failed, navigation log unavailable